createdAt,value
2019-02-22T00:00:49.945Z,99.90
2019-02-22T00:03:18.818Z,99.90
2019-02-22T00:05:48.055Z,99.90
2019-02-22T00:08:16.821Z,99.90
2019-02-22T00:10:45.605Z,99.90
2019-02-22T00:13:14.371Z,99.90
2019-02-22T00:15:43.153Z,99.90
2019-02-22T00:18:12.020Z,99.90
2019-02-22T00:20:41.349Z,99.90
2019-02-22T00:23:10.243Z,99.90
2019-02-22T00:25:39.059Z,99.90
2019-02-22T00:28:07.898Z,99.90
2019-02-22T00:30:36.710Z,99.90
2019-02-22T00:33:05.506Z,99.90
2019-02-22T00:35:34.266Z,99.90
2019-02-22T00:38:03.126Z,99.90
2019-02-22T00:40:31.914Z,99.90
2019-02-22T00:43:00.683Z,99.90
2019-02-22T00:45:29.474Z,99.90
2019-02-22T00:47:58.602Z,99.90
2019-02-22T00:50:27.369Z,99.90
2019-02-22T00:52:56.144Z,99.90
2019-02-22T00:55:24.890Z,99.90
2019-02-22T00:57:53.669Z,99.90
2019-02-22T01:00:22.461Z,99.90
2019-02-22T01:02:51.196Z,99.90
2019-02-22T01:05:19.997Z,99.90
2019-02-22T01:07:49.109Z,99.90
2019-02-22T01:10:17.973Z,99.90
2019-02-22T01:12:46.731Z,99.90
2019-02-22T01:15:15.551Z,99.90
2019-02-22T01:17:44.407Z,99.90
2019-02-22T01:20:13.237Z,99.90
2019-02-22T01:22:41.990Z,99.90
2019-02-22T01:25:10.747Z,99.90
2019-02-22T01:27:39.536Z,99.90
2019-02-22T01:30:08.946Z,99.90
2019-02-22T01:32:37.994Z,99.90
2019-02-22T01:35:06.918Z,99.90
2019-02-22T01:37:35.706Z,99.90
2019-02-22T01:40:05.076Z,99.90
2019-02-22T01:42:34.115Z,99.90
2019-02-22T01:45:02.858Z,99.90
2019-02-22T01:47:31.900Z,99.90
2019-02-22T01:50:00.668Z,99.90
2019-02-22T01:52:29.680Z,99.90
2019-02-22T01:54:58.524Z,99.90
2019-02-22T01:57:27.347Z,99.90
2019-02-22T01:59:56.131Z,99.90
2019-02-22T02:02:24.936Z,99.90
2019-02-22T02:04:53.853Z,99.90
2019-02-22T02:07:22.607Z,99.90
2019-02-22T02:09:51.366Z,99.90
2019-02-22T02:12:20.165Z,99.90
2019-02-22T02:14:48.923Z,99.90
2019-02-22T02:17:17.926Z,99.90
2019-02-22T02:19:46.824Z,99.90
2019-02-22T02:22:15.654Z,99.90
2019-02-22T02:24:44.430Z,99.90
2019-02-22T02:27:13.475Z,99.90
2019-02-22T02:29:42.748Z,99.90
2019-02-22T02:32:11.527Z,99.90
2019-02-22T02:34:40.543Z,99.90
2019-02-22T02:37:09.531Z,99.90
2019-02-22T02:39:38.496Z,99.90
2019-02-22T02:42:07.589Z,99.90
2019-02-22T02:44:36.372Z,99.90
2019-02-22T02:47:05.201Z,99.90
2019-02-22T02:49:34.186Z,99.90
2019-02-22T02:52:03.232Z,99.90
2019-02-22T02:54:31.981Z,99.90
2019-02-22T02:57:00.964Z,99.90
2019-02-22T02:59:29.732Z,99.90
2019-02-22T03:01:58.591Z,99.90
2019-02-22T03:04:27.400Z,99.90
2019-02-22T03:07:09.937Z,99.90
2019-02-22T03:09:38.839Z,99.90
2019-02-22T03:12:07.847Z,99.90
2019-02-22T03:14:36.672Z,99.90
2019-02-22T03:17:05.431Z,99.90
2019-02-22T03:19:34.657Z,99.90
2019-02-22T03:22:03.515Z,99.90
2019-02-22T03:24:32.296Z,99.90
2019-02-22T03:27:01.066Z,99.90
2019-02-22T03:29:29.885Z,99.90
2019-02-22T03:31:58.749Z,99.90
2019-02-22T03:34:27.588Z,99.90
2019-02-22T03:36:56.646Z,99.90
2019-02-22T03:39:25.473Z,99.90
2019-02-22T03:41:54.261Z,99.90
2019-02-22T03:44:23.606Z,99.90
2019-02-22T03:46:52.351Z,99.90
2019-02-22T03:49:21.103Z,99.90
2019-02-22T03:51:49.945Z,99.90
2019-02-22T03:54:18.868Z,99.90
2019-02-22T03:56:47.639Z,99.90
2019-02-22T03:59:16.473Z,99.90
2019-02-22T04:01:45.256Z,99.90
2019-02-22T04:04:14.087Z,99.90
2019-02-22T04:06:43.104Z,99.90
2019-02-22T04:09:11.886Z,99.90
2019-02-22T04:11:45.722Z,99.90
2019-02-22T04:14:11.495Z,99.90
2019-02-22T04:16:40.480Z,99.90
2019-02-22T04:19:09.238Z,99.90
2019-02-22T04:21:38.032Z,99.90
2019-02-22T04:24:06.846Z,99.90
2019-02-22T04:26:35.712Z,99.90
2019-02-22T04:29:04.822Z,99.90
2019-02-22T04:31:33.928Z,99.90
2019-02-22T04:34:02.678Z,99.90
2019-02-22T04:36:31.943Z,99.90
2019-02-22T04:39:01.444Z,99.90
2019-02-22T04:41:30.230Z,99.90
2019-02-22T04:43:59.029Z,99.90
2019-02-22T04:46:28.112Z,99.90
2019-02-22T04:48:56.912Z,99.90
2019-02-22T04:51:26.007Z,99.90
2019-02-22T04:53:55.009Z,99.90
2019-02-22T04:56:23.786Z,99.90
2019-02-22T04:58:53.020Z,99.90
2019-02-22T05:01:22.049Z,99.90
2019-02-22T05:03:50.897Z,99.90
2019-02-22T05:06:19.817Z,99.90
2019-02-22T05:08:48.916Z,99.90
2019-02-22T05:11:17.919Z,99.90
2019-02-22T05:13:46.720Z,99.90
2019-02-22T05:16:15.515Z,99.90
2019-02-22T05:18:44.262Z,99.90
2019-02-22T05:21:13.043Z,99.90
2019-02-22T05:23:42.163Z,99.90
2019-02-22T05:26:10.935Z,99.90
2019-02-22T05:28:39.787Z,99.90
2019-02-22T05:31:08.612Z,99.90
2019-02-22T05:33:37.920Z,99.90
2019-02-22T05:36:06.688Z,99.90
2019-02-22T05:38:35.619Z,99.90
2019-02-22T05:41:04.545Z,99.90
2019-02-22T05:43:33.399Z,99.90
2019-02-22T05:46:02.142Z,99.90
2019-02-22T05:48:30.882Z,99.90
2019-02-22T05:50:59.899Z,99.90
2019-02-22T05:53:28.986Z,99.90
2019-02-22T05:55:57.758Z,99.90
2019-02-22T05:58:29.121Z,99.90
2019-02-22T06:00:58.453Z,99.90
2019-02-22T06:03:27.549Z,99.90
2019-02-22T06:05:56.495Z,99.90
2019-02-22T06:08:25.444Z,99.90
2019-02-22T06:10:54.203Z,99.90
2019-02-22T06:13:23.044Z,99.90
2019-02-22T06:15:51.838Z,99.90
2019-02-22T06:18:23.039Z,99.90
2019-02-22T06:20:51.193Z,99.90
2019-02-22T06:23:23.833Z,99.90
2019-02-22T06:25:52.911Z,99.90
2019-02-22T06:28:21.909Z,99.90
2019-02-22T06:30:50.696Z,99.90
2019-02-22T06:33:19.459Z,99.90
2019-02-22T06:35:48.255Z,99.90
2019-02-22T06:38:17.040Z,99.90
2019-02-22T06:40:47.964Z,99.90
2019-02-22T06:43:16.325Z,99.90
2019-02-22T06:45:45.263Z,99.90
2019-02-22T06:48:14.368Z,99.90
2019-02-22T06:50:43.118Z,99.90
2019-02-22T06:53:11.890Z,99.90
2019-02-22T06:55:40.679Z,99.90
2019-02-22T06:58:11.825Z,99.90
2019-02-22T07:00:40.462Z,99.90
2019-02-22T07:03:09.214Z,99.90
2019-02-22T07:05:38.092Z,99.90
2019-02-22T07:08:07.438Z,99.90
2019-02-22T07:11:00.905Z,99.90
2019-02-22T07:13:30.210Z,99.90
2019-02-22T07:15:58.962Z,99.90
2019-02-22T07:18:27.717Z,99.90
2019-02-22T07:20:56.521Z,99.90
2019-02-22T07:23:25.681Z,99.90
2019-02-22T07:25:54.707Z,99.90
2019-02-22T07:28:23.487Z,99.90
2019-02-22T07:30:52.555Z,99.90
2019-02-22T07:33:21.323Z,99.90
2019-02-22T07:35:50.427Z,99.90
2019-02-22T07:38:19.536Z,99.90
2019-02-22T07:40:48.425Z,99.90
2019-02-22T07:43:17.195Z,99.90
2019-02-22T07:45:45.980Z,99.90
2019-02-22T07:48:14.764Z,99.90
2019-02-22T07:50:43.783Z,99.90
2019-02-22T07:53:13.317Z,99.90
2019-02-22T07:55:42.271Z,99.90
2019-02-22T07:58:11.087Z,99.90
2019-02-22T08:00:39.840Z,99.90
2019-02-22T08:03:08.599Z,99.90
2019-02-22T08:05:37.843Z,99.90
2019-02-22T08:08:07.050Z,99.90
2019-02-22T08:10:35.805Z,99.90
2019-02-22T08:13:04.651Z,99.90
2019-02-22T08:15:35.359Z,99.90
2019-02-22T08:18:03.923Z,99.90
2019-02-22T08:20:32.789Z,99.90
2019-02-22T08:23:01.793Z,99.90
2019-02-22T08:25:30.804Z,99.90
2019-02-22T08:27:59.556Z,99.90
2019-02-22T08:30:28.643Z,99.90
2019-02-22T08:32:57.677Z,99.90
2019-02-22T08:35:26.454Z,99.90
2019-02-22T08:37:55.487Z,99.90
2019-02-22T08:40:24.280Z,99.90
2019-02-22T08:42:53.026Z,99.90
2019-02-22T08:45:21.949Z,99.90
2019-02-22T08:47:50.739Z,99.90
2019-02-22T08:50:19.484Z,99.90
2019-02-22T08:52:48.260Z,99.90
2019-02-22T08:55:16.992Z,99.90
2019-02-22T08:57:45.832Z,99.90
2019-02-22T09:00:15.205Z,99.90
2019-02-22T09:02:43.985Z,99.90
2019-02-22T09:05:12.799Z,99.90
2019-02-22T09:07:41.599Z,99.90
2019-02-22T09:10:10.611Z,99.90
2019-02-22T09:12:39.371Z,99.90
2019-02-22T09:15:10.599Z,99.90
2019-02-22T09:17:39.582Z,99.90
2019-02-22T09:20:09.285Z,99.20
2019-02-22T09:22:38.210Z,98.50
2019-02-22T09:25:08.717Z,99.80
2019-02-22T09:27:37.518Z,99.90
2019-02-22T09:30:07.411Z,99.90
2019-02-22T09:32:36.200Z,99.90
2019-02-22T09:35:05.907Z,99.90
2019-02-22T09:37:34.696Z,99.90
2019-02-22T09:40:03.547Z,99.30
2019-02-22T09:42:32.392Z,99.90
2019-02-22T09:45:01.261Z,99.90
2019-02-22T09:47:30.022Z,99.90
2019-02-22T09:49:58.773Z,99.90
2019-02-22T09:52:27.837Z,98.50
2019-02-22T09:54:56.676Z,96.90
2019-02-22T09:57:25.467Z,98.90
2019-02-22T09:59:54.263Z,97.30
2019-02-22T10:02:23.275Z,96.40
2019-02-22T10:04:55.553Z,95.20
2019-02-22T10:07:22.899Z,96.10
2019-02-22T10:09:51.704Z,96.50
2019-02-22T10:12:20.715Z,97.80
2019-02-22T10:14:49.820Z,95.80
2019-02-22T10:17:18.640Z,99.90
2019-02-22T10:19:47.765Z,99.90
2019-02-22T10:22:16.893Z,99.90
2019-02-22T10:24:45.855Z,99.90
2019-02-22T10:27:15.193Z,99.90
2019-02-22T10:29:44.089Z,99.70
2019-02-22T10:32:12.951Z,99.60
2019-02-22T10:34:41.847Z,98.00
2019-02-22T10:37:10.651Z,92.60
2019-02-22T10:39:39.596Z,93.80
2019-02-22T10:42:08.591Z,95.40
2019-02-22T10:44:37.607Z,94.90
2019-02-22T10:47:06.411Z,95.00
2019-02-22T10:49:35.516Z,96.80
2019-02-22T10:52:04.351Z,97.50
2019-02-22T10:54:33.171Z,97.40
2019-02-22T10:57:02.438Z,95.80
2019-02-22T10:59:31.486Z,96.00
2019-02-22T11:02:00.343Z,95.10
2019-02-22T11:04:29.225Z,94.80
2019-02-22T11:06:58.338Z,95.80
2019-02-22T11:09:27.168Z,94.40
2019-02-22T11:11:55.992Z,96.00
2019-02-22T11:14:47.599Z,96.90
2019-02-22T11:17:16.440Z,97.70
2019-02-22T11:19:45.264Z,97.20
2019-02-22T11:22:14.359Z,96.70
2019-02-22T11:24:43.175Z,97.70
2019-02-22T11:27:12.008Z,98.60
2019-02-22T11:29:40.897Z,98.10
2019-02-22T11:32:09.698Z,98.10
2019-02-22T11:34:38.494Z,99.30
2019-02-22T11:37:07.346Z,99.00
2019-02-22T11:39:36.248Z,98.60
2019-02-22T11:42:05.637Z,99.70
2019-02-22T11:44:40.264Z,99.60
2019-02-22T11:47:05.072Z,99.40
2019-02-22T11:49:33.894Z,99.90
2019-02-22T11:52:02.685Z,99.90
2019-02-22T11:54:31.525Z,99.90
2019-02-22T11:57:00.468Z,99.90
2019-02-22T11:59:29.641Z,98.30
2019-02-22T12:01:58.534Z,97.90
2019-02-22T12:04:27.619Z,99.10
2019-02-22T12:06:56.453Z,97.80
2019-02-22T12:09:25.706Z,98.90
2019-02-22T12:11:54.718Z,97.80
2019-02-22T12:14:23.499Z,95.80
2019-02-22T12:16:52.352Z,96.40
2019-02-22T12:19:21.115Z,96.90
2019-02-22T12:21:49.958Z,97.80
2019-02-22T12:24:18.834Z,97.70
2019-02-22T12:26:47.642Z,95.90
2019-02-22T12:29:16.698Z,93.50
2019-02-22T12:31:45.611Z,92.70
2019-02-22T12:34:14.428Z,91.50
2019-02-22T12:36:43.291Z,93.50
2019-02-22T12:39:12.231Z,95.40
2019-02-22T12:41:41.126Z,93.00
2019-02-22T12:44:09.911Z,92.50
2019-02-22T12:46:38.739Z,91.50
2019-02-22T12:49:07.592Z,87.70
2019-02-22T12:51:36.406Z,87.30
2019-02-22T12:54:05.221Z,88.20
2019-02-22T12:59:04.848Z,86.10
2019-02-22T13:01:33.942Z,80.50
2019-02-22T13:04:02.795Z,81.30
2019-02-22T13:06:31.673Z,79.50
2019-02-22T13:09:00.975Z,82.40
2019-02-22T13:11:32.859Z,80.60
2019-02-22T13:14:01.742Z,78.70
2019-02-22T13:16:30.565Z,72.60
2019-02-22T13:19:02.418Z,70.10
2019-02-22T13:21:32.151Z,66.60
2019-02-22T13:24:01.143Z,66.70
2019-02-22T13:26:33.578Z,67.20
2019-02-22T13:29:04.862Z,68.80
2019-02-22T13:31:33.044Z,64.10
2019-02-22T13:34:01.894Z,65.30
2019-02-22T13:36:30.795Z,56.50
2019-02-22T13:38:59.645Z,45.20
2019-02-22T13:41:29.002Z,41.80
2019-02-22T13:43:57.900Z,31.60
2019-02-22T13:46:26.809Z,44.30
2019-02-22T13:48:55.896Z,45.00
2019-02-22T13:51:24.756Z,46.30
2019-02-22T13:53:53.608Z,50.00
2019-02-22T13:56:29.736Z,43.90
2019-02-22T13:58:53.071Z,42.60
2019-02-22T14:01:21.965Z,45.40
2019-02-22T14:03:50.816Z,44.80
2019-02-22T14:06:21.036Z,44.60
2019-02-22T14:08:49.909Z,38.00
2019-02-22T14:11:18.716Z,29.60
2019-02-22T14:13:47.466Z,23.60
2019-02-22T14:16:16.467Z,17.60
2019-02-22T14:18:45.246Z,15.10
2019-02-22T14:21:14.793Z,21.60
2019-02-22T14:23:43.909Z,24.90
2019-02-22T14:26:12.912Z,30.00
2019-02-22T14:28:41.696Z,36.60
2019-02-22T14:31:10.543Z,43.20
2019-02-22T14:33:39.329Z,46.30
2019-02-22T14:36:08.253Z,47.20
2019-02-22T14:38:37.131Z,50.50
2019-02-22T14:41:05.941Z,48.30
2019-02-22T14:43:34.811Z,51.90
2019-02-22T14:46:03.632Z,54.60
2019-02-22T14:48:32.652Z,52.90
2019-02-22T14:51:02.056Z,56.10
2019-02-22T14:53:30.832Z,55.80
2019-02-22T14:56:00.231Z,55.60
2019-02-22T14:58:29.303Z,55.10
2019-02-22T15:00:58.157Z,52.60
2019-02-22T15:03:27.022Z,56.60
2019-02-22T15:05:55.828Z,58.00
2019-02-22T15:08:24.924Z,60.60
2019-02-22T15:10:53.717Z,58.80
2019-02-22T15:13:22.546Z,60.20
2019-02-22T15:16:14.024Z,62.30
2019-02-22T15:19:02.161Z,63.50
2019-02-22T15:21:31.231Z,61.50
2019-02-22T15:23:59.987Z,57.00
2019-02-22T15:26:29.279Z,53.40
2019-02-22T15:28:58.033Z,57.00
2019-02-22T15:31:35.864Z,54.40
2019-02-22T15:33:57.607Z,54.40
2019-02-22T15:36:26.367Z,53.10
2019-02-22T15:38:55.196Z,55.70
2019-02-22T15:41:24.178Z,54.70
2019-02-22T15:43:52.956Z,54.30
2019-02-22T15:46:21.804Z,55.60
2019-02-22T15:48:50.587Z,51.60
2019-02-22T15:51:19.829Z,54.00
2019-02-22T15:53:48.710Z,53.90
2019-02-22T15:56:18.448Z,49.60
2019-02-22T15:58:47.466Z,52.00
2019-02-22T16:01:16.227Z,51.80
2019-02-22T16:04:02.439Z,54.70
2019-02-22T16:06:32.424Z,57.50
2019-02-22T16:09:01.338Z,55.10
2019-02-22T16:11:30.161Z,53.60
2019-02-22T16:13:59.019Z,51.10
2019-02-22T16:16:28.025Z,49.30
2019-02-22T16:18:57.062Z,48.80
2019-02-22T16:21:25.899Z,49.70
2019-02-22T16:23:54.925Z,50.50
2019-02-22T16:26:27.878Z,52.20
2019-02-22T16:28:56.642Z,50.70
2019-02-22T16:31:25.557Z,52.70
2019-02-22T16:33:54.670Z,54.80
2019-02-22T16:36:23.639Z,53.10
2019-02-22T16:38:52.433Z,54.00
2019-02-22T16:41:21.283Z,55.40
2019-02-22T16:43:50.076Z,54.20
2019-02-22T16:46:18.866Z,54.10
2019-02-22T16:48:47.626Z,54.80
2019-02-22T16:51:16.452Z,56.50
2019-02-22T16:53:45.326Z,56.10
2019-02-22T16:56:14.216Z,57.40
2019-02-22T16:58:43.066Z,57.50
2019-02-22T17:01:11.860Z,57.90
2019-02-22T17:03:40.880Z,61.80
2019-02-22T17:06:09.657Z,62.60
2019-02-22T17:08:38.582Z,64.70
2019-02-22T17:11:07.751Z,66.80
2019-02-22T17:13:36.952Z,68.90
2019-02-22T17:16:05.795Z,69.40
2019-02-22T17:18:34.546Z,71.70
2019-02-22T17:21:03.370Z,72.10
2019-02-22T17:23:32.419Z,73.90
2019-02-22T17:26:01.734Z,76.70
2019-02-22T17:28:30.755Z,78.70
2019-02-22T17:30:59.520Z,79.60
2019-02-22T17:33:28.299Z,78.20
2019-02-22T17:35:57.101Z,80.00
2019-02-22T17:38:26.036Z,81.20
2019-02-22T17:40:55.027Z,82.80
2019-02-22T17:43:23.768Z,84.00
2019-02-22T17:45:52.533Z,85.60
2019-02-22T17:48:21.327Z,86.20
2019-02-22T17:50:50.335Z,85.60
2019-02-22T17:53:19.175Z,85.30
2019-02-22T17:55:48.153Z,86.20
2019-02-22T17:58:24.520Z,87.80
2019-02-22T18:00:47.611Z,88.90
2019-02-22T18:03:17.487Z,89.20
2019-02-22T18:05:46.353Z,89.70
2019-02-22T18:08:15.476Z,90.10
2019-02-22T18:10:44.675Z,90.60
2019-02-22T18:13:15.805Z,90.90
2019-02-22T18:15:44.422Z,91.20
2019-02-22T18:18:13.241Z,91.70
2019-02-22T18:20:42.283Z,92.90
2019-02-22T18:23:11.356Z,93.50
2019-02-22T18:25:40.144Z,94.70
2019-02-22T18:28:09.322Z,94.90
2019-02-22T18:30:38.436Z,95.40
2019-02-22T18:33:07.966Z,95.90
2019-02-22T18:35:37.047Z,96.00
2019-02-22T18:38:06.188Z,96.30
2019-02-22T18:40:35.056Z,96.10
2019-02-22T18:43:03.812Z,96.40
2019-02-22T18:45:32.587Z,96.20
2019-02-22T18:48:03.463Z,95.70
2019-02-22T18:50:32.251Z,95.10
2019-02-22T18:53:01.130Z,94.80
2019-02-22T18:55:29.899Z,94.70
2019-02-22T18:57:58.692Z,95.10
2019-02-22T19:00:27.509Z,94.80
2019-02-22T19:02:56.307Z,95.10
2019-02-22T19:05:25.078Z,95.40
2019-02-22T19:07:53.879Z,95.50
2019-02-22T19:10:22.940Z,95.50
2019-02-22T19:12:51.834Z,95.90
2019-02-22T19:15:20.961Z,95.90
2019-02-22T19:17:49.782Z,96.10
2019-02-22T19:20:18.591Z,96.20
2019-02-22T19:22:47.709Z,95.90
2019-02-22T19:25:16.553Z,96.10
2019-02-22T19:27:46.543Z,96.90
2019-02-22T19:30:16.535Z,96.70
2019-02-22T19:32:45.604Z,96.70
2019-02-22T19:35:14.394Z,96.60
2019-02-22T19:37:43.389Z,96.10
2019-02-22T19:40:14.173Z,95.70
2019-02-22T19:42:43.039Z,95.90
2019-02-22T19:45:11.936Z,96.20
2019-02-22T19:47:42.241Z,96.20
2019-02-22T19:50:12.063Z,96.60
2019-02-22T19:52:40.999Z,96.60
2019-02-22T19:55:11.498Z,96.40
2019-02-22T19:57:40.534Z,96.40
2019-02-22T20:00:11.785Z,96.60
2019-02-22T20:02:40.550Z,96.30
2019-02-22T20:05:09.864Z,95.80
2019-02-22T20:07:38.649Z,96.00
2019-02-22T20:10:17.377Z,95.30
2019-02-22T20:12:39.732Z,96.20
2019-02-22T20:15:10.215Z,96.40
2019-02-22T20:17:40.351Z,97.00
2019-02-22T20:20:11.915Z,97.20
2019-02-22T20:22:40.744Z,97.00
2019-02-22T20:25:09.729Z,96.40
2019-02-22T20:27:38.700Z,95.80
2019-02-22T20:30:09.637Z,95.70
2019-02-22T20:32:38.503Z,95.70
2019-02-22T20:35:09.661Z,96.00
2019-02-22T20:37:38.995Z,95.90
2019-02-22T20:40:08.299Z,95.40
2019-02-22T20:42:37.192Z,95.10
2019-02-22T20:45:08.137Z,94.20
2019-02-22T20:47:38.063Z,92.50
2019-02-22T20:50:13.651Z,91.20
2019-02-22T20:52:42.667Z,90.00
2019-02-22T20:55:11.827Z,89.70
2019-02-22T20:57:40.723Z,88.90
2019-02-22T21:00:11.787Z,88.90
2019-02-22T21:02:40.561Z,88.30
2019-02-22T21:05:09.815Z,87.00
2019-02-22T21:07:38.827Z,87.50
2019-02-22T21:10:09.885Z,86.80
2019-02-22T21:12:38.675Z,86.80
2019-02-22T21:15:08.930Z,86.30
2019-02-22T21:17:37.684Z,85.60
2019-02-22T21:20:07.572Z,84.20
2019-02-22T21:22:36.930Z,83.30
2019-02-22T21:25:06.469Z,82.10
2019-02-22T21:27:35.586Z,82.10
2019-02-22T21:30:04.732Z,81.80
2019-02-22T21:32:33.863Z,81.20
2019-02-22T21:35:02.807Z,79.30
2019-02-22T21:37:31.697Z,80.70
2019-02-22T21:40:00.515Z,83.30
2019-02-22T21:42:29.342Z,84.00
2019-02-22T21:44:58.123Z,83.80
2019-02-22T21:47:26.946Z,84.30
2019-02-22T21:49:55.744Z,83.90
2019-02-22T21:52:24.728Z,83.90
2019-02-22T21:54:53.787Z,84.50
2019-02-22T21:57:22.777Z,85.80
2019-02-22T21:59:51.775Z,84.00
2019-02-22T22:02:20.811Z,81.60
2019-02-22T22:04:49.603Z,80.20
2019-02-22T22:07:18.620Z,81.50
2019-02-22T22:09:47.367Z,81.60
2019-02-22T22:12:16.227Z,82.00
2019-02-22T22:14:45.045Z,82.80
2019-02-22T22:17:13.938Z,82.80
2019-02-22T22:19:42.776Z,82.00
2019-02-22T22:22:12.057Z,80.30
2019-02-22T22:24:42.374Z,79.80
2019-02-22T22:27:11.129Z,80.10
2019-02-22T22:29:40.139Z,74.20
2019-02-22T22:32:08.928Z,74.10
2019-02-22T22:34:37.774Z,73.70
2019-02-22T22:37:06.586Z,75.20
2019-02-22T22:39:35.455Z,77.00
2019-02-22T22:42:04.190Z,77.70
2019-02-22T22:44:33.195Z,77.40
2019-02-22T22:47:01.940Z,78.00
2019-02-22T22:49:30.720Z,76.90
2019-02-22T22:51:59.500Z,76.10
2019-02-22T22:54:28.271Z,75.00
2019-02-22T22:56:57.063Z,76.00
2019-02-22T22:59:25.867Z,74.50
2019-02-22T23:01:56.275Z,75.30
2019-02-22T23:04:25.105Z,77.60
2019-02-22T23:06:53.857Z,77.70
2019-02-22T23:09:22.990Z,79.20
2019-02-22T23:11:51.867Z,80.90
2019-02-22T23:14:20.655Z,80.90
2019-02-22T23:16:49.883Z,81.60
2019-02-22T23:19:18.676Z,82.00
2019-02-22T23:21:47.468Z,81.90
2019-02-22T23:24:16.581Z,80.20
2019-02-22T23:26:45.411Z,80.00
2019-02-22T23:29:14.150Z,81.60
2019-02-22T23:31:42.943Z,82.20
2019-02-22T23:34:11.712Z,82.30
2019-02-22T23:36:40.485Z,81.90
2019-02-22T23:39:09.411Z,82.80
2019-02-22T23:41:38.231Z,82.90
2019-02-22T23:44:07.049Z,83.20
2019-02-22T23:46:35.904Z,83.30
2019-02-22T23:49:12.852Z,84.40
2019-02-22T23:51:35.382Z,84.50
2019-02-22T23:54:04.625Z,84.00
2019-02-22T23:56:33.623Z,83.20
2019-02-22T23:59:02.659Z,84.00
